Time;durP1;ratioP1;P1;durP2;ratioP2;P2;SDS_P1;SDS_P2;PMS_P1;PMS_P2;Temp;Humidity;BMP_temperature;BMP_pressure;BME280_temperature;BME280_humidity;BME280_pressure;Samples;Min_cycle;Max_cycle;Signal;HPM_P1;HPM_P2
2024/01/13 00:02:19;;;;;;;17.20;6.90;;;;;;;-8.49;63.78;98938.24;107277;1257;71407;-38
2024/01/13 00:04:46;;;;;;;15.10;7.10;;;;;;;-8.59;64.32;98933.14;107266;1257;60199;-39
2024/01/13 00:07:13;;;;;;;13.80;7.40;;;;;;;-8.67;64.96;98928.05;106505;1257;1003641;-39
2024/01/13 00:09:41;;;;;;;11.80;6.50;;;;;;;-8.73;65.43;98928.77;107275;1256;72214;-39
2024/01/13 00:12:08;;;;;;;12.80;6.40;;;;;;;-8.67;65.55;98919.95;107289;1254;67928;-39
2024/01/13 00:14:36;;;;;;;11.50;6.10;;;;;;;-8.60;65.65;98907.27;107283;1255;72484;-39
2024/01/13 00:17:03;;;;;;;11.10;5.80;;;;;;;-8.52;65.77;98902.98;107262;1257;60944;-38
2024/01/13 00:19:31;;;;;;;10.30;5.40;;;;;;;-8.43;65.63;98893.62;107264;1255;59977;-39
2024/01/13 00:21:59;;;;;;;16.50;6.40;;;;;;;-8.33;65.48;98887.20;107224;1257;71795;-39
2024/01/13 00:24:26;;;;;;;12.90;6.00;;;;;;;-8.27;65.16;98879.73;107283;1257;65681;-39
2024/01/13 00:26:54;;;;;;;12.40;6.40;;;;;;;-8.27;64.97;98872.39;107246;1257;73142;-39
2024/01/13 00:29:21;;;;;;;11.70;6.50;;;;;;;-8.28;65.43;98870.67;107255;1260;59711;-38
2024/01/13 00:31:49;;;;;;;12.70;7.30;;;;;;;-8.30;65.38;98861.88;106562;1257;1003063;-39
2024/01/13 00:34:16;;;;;;;13.60;6.70;;;;;;;-8.33;65.33;98853.14;107266;1255;73206;-39
2024/01/13 00:36:44;;;;;;;12.60;6.60;;;;;;;-8.35;65.80;98844.48;107253;1257;67547;-38
2024/01/13 00:39:11;;;;;;;12.40;6.80;;;;;;;-8.35;65.93;98839.55;107347;1257;71344;-38
2024/01/13 00:41:39;;;;;;;18.00;6.90;;;;;;;-8.34;66.24;98832.58;107279;1260;60380;-38
2024/01/13 00:44:06;;;;;;;14.80;6.90;;;;;;;-8.29;66.33;98828.34;107262;1254;60092;-38
2024/01/13 00:46:34;;;;;;;15.20;7.10;;;;;;;-8.26;66.59;98817.41;107237;1256;72977;-38
2024/01/13 00:49:02;;;;;;;13.80;6.40;;;;;;;-8.23;66.95;98812.86;107326;1257;67591;-38
2024/01/13 00:51:32;;;;;;;13.70;6.30;;;;;;;-8.18;67.23;98817.00;107264;1255;72487;-38
2024/01/13 00:54:00;;;;;;;11.80;6.60;;;;;;;-8.11;67.23;98808.64;107305;1257;60521;-38
2024/01/13 00:56:27;;;;;;;12.70;6.30;;;;;;;-8.05;67.64;98804.48;107251;1255;60309;-39
2024/01/13 00:58:55;;;;;;;14.20;7.10;;;;;;;-7.99;67.80;98791.70;107266;1257;73899;-38
2024/01/13 01:01:22;;;;;;;13.80;7.40;;;;;;;-7.97;68.29;98781.29;107328;1256;67869;-39
2024/01/13 01:03:50;;;;;;;14.60;7.00;;;;;;;-7.98;68.36;98777.70;107218;1257;72457;-38
2024/01/13 01:06:17;;;;;;;17.40;7.30;;;;;;;-8.04;68.58;98767.14;107240;1257;60370;-38
2024/01/13 01:08:45;;;;;;;15.30;7.40;;;;;;;-8.10;68.69;98765.27;107244;1257;60559;-38
2024/01/13 01:11:13;;;;;;;12.70;6.90;;;;;;;-8.18;69.47;98767.98;106546;1257;1002921;-39
2024/01/13 01:13:40;;;;;;;16.00;7.70;;;;;;;-8.27;69.68;98768.46;107376;1257;67886;-38
2024/01/13 01:16:08;;;;;;;11.50;5.60;;;;;;;-8.31;70.27;98757.73;107263;1256;72706;-38
2024/01/13 01:18:36;;;;;;;13.60;6.20;;;;;;;-8.26;70.19;98757.73;107241;1255;61707;-38
2024/01/13 01:21:13;;;;;;;13.90;7.10;;;;;;;-8.22;70.22;98758.77;107275;1257;60402;-38
2024/01/13 01:23:43;;;;;;;10.20;6.00;;;;;;;-8.17;70.70;98752.02;107322;1255;73842;-38
2024/01/13 01:26:11;;;;;;;12.70;6.40;;;;;;;-8.12;71.23;98753.89;107296;1257;66667;-38
2024/01/13 01:28:38;;;;;;;13.20;6.30;;;;;;;-8.07;70.95;98746.23;107256;1260;72641;-38
2024/01/13 01:31:06;;;;;;;18.00;6.90;;;;;;;-8.05;71.10;98748.27;107260;1255;60389;-38
2024/01/13 01:33:36;;;;;;;11.70;7.20;;;;;;;-8.09;71.09;98745.29;107279;1254;60399;-38
2024/01/13 01:36:06;;;;;;;15.90;6.90;;;;;;;-8.12;71.48;98735.01;107368;1254;73834;-38
2024/01/13 01:38:33;;;;;;;19.00;6.90;;;;;;;-8.20;71.76;98732.91;107238;1255;67746;-38
2024/01/13 01:41:14;;;;;;;15.30;6.70;;;;;;;-8.27;72.09;98720.41;107236;1257;72682;-38
2024/01/13 01:43:43;;;;;;;13.90;6.90;;;;;;;-8.33;72.84;98704.77;107212;1257;60545;-38
2024/01/13 01:46:13;;;;;;;15.00;6.10;;;;;;;-8.32;72.85;98694.15;107257;1257;60496;-38
2024/01/13 01:48:41;;;;;;;15.60;6.70;;;;;;;-8.25;72.49;98689.77;107211;1260;73783;-38
2024/01/13 01:51:16;;;;;;;10.40;5.80;;;;;;;-8.21;72.74;98688.88;107253;1257;67726;-38
2024/01/13 01:53:45;;;;;;;12.30;5.90;;;;;;;-8.16;72.82;98676.08;107332;1257;71379;-38
2024/01/13 01:56:18;;;;;;;9.90;5.60;;;;;;;-8.11;72.97;98671.64;107228;1257;60463;-38
2024/01/13 01:58:46;;;;;;;11.40;6.10;;;;;;;-8.04;73.28;98664.73;107305;1255;60314;-38
2024/01/13 02:01:14;;;;;;;12.00;6.30;;;;;;;-7.99;73.65;98666.23;107291;1256;72578;-38
2024/01/13 02:03:42;;;;;;;12.40;6.00;;;;;;;-8.00;73.63;98653.60;107295;1256;67687;-38
2024/01/13 02:06:10;;;;;;;11.30;7.00;;;;;;;-8.10;73.78;98635.94;107271;1255;72695;-39
2024/01/13 02:08:38;;;;;;;14.00;6.80;;;;;;;-8.08;74.19;98646.88;107251;1257;60584;-39
2024/01/13 02:11:12;;;;;;;16.50;7.70;;;;;;;-8.15;74.22;98647.89;107369;1254;59672;-38
2024/01/13 02:13:43;;;;;;;11.80;6.70;;;;;;;-8.21;74.80;98642.14;106538;1257;1003018;-38
2024/01/13 02:16:11;;;;;;;16.60;7.80;;;;;;;-8.24;75.34;98633.92;107414;1254;66287;-38
2024/01/13 02:18:39;;;;;;;16.90;7.10;;;;;;;-8.16;75.53;98626.39;107235;1255;72316;-38
2024/01/13 02:21:10;;;;;;;16.00;6.50;;;;;;;-8.05;75.41;98619.65;107297;1257;60422;-39
2024/01/13 02:23:39;;;;;;;;;;;;;;;-7.96;75.09;98609.80;107273;1257;60428;-39
2024/01/13 02:26:07;;;;;;;12.70;6.80;;;;;;;-7.87;75.26;98605.57;107301;1257;73836;-39
2024/01/13 02:28:34;;;;;;;15.60;7.20;;;;;;;-7.80;75.03;98601.96;107281;1257;66297;-39
2024/01/13 02:31:15;;;;;;;13.50;7.10;;;;;;;-7.81;74.48;98594.27;107256;1256;72645;-39
2024/01/13 02:33:51;;;;;;;12.80;7.50;;;;;;;-7.83;74.68;98595.79;107328;1256;60509;-39
2024/01/13 02:36:22;;;;;;;16.50;7.20;;;;;;;-7.89;74.77;98592.58;106532;1257;1003704;-39
2024/01/13 02:38:51;;;;;;;13.80;7.10;;;;;;;-7.94;74.71;98583.88;107341;1257;73014;-39
2024/01/13 02:41:19;;;;;;;16.30;8.00;;;;;;;-8.00;74.70;98580.59;107292;1257;66299;-38
2024/01/13 02:43:47;;;;;;;16.80;7.50;;;;;;;-8.06;75.03;98579.63;107287;1257;70416;-39
2024/01/13 02:46:15;;;;;;;13.80;7.50;;;;;;;-8.07;75.25;98567.36;106580;1256;1003030;-39
2024/01/13 02:48:47;;;;;;;15.70;7.90;;;;;;;-7.99;75.17;98563.44;107357;1257;60443;-38
2024/01/13 02:51:16;;;;;;;16.90;7.60;;;;;;;-7.90;75.05;98561.89;106542;1255;1002942;-39
2024/01/13 02:53:45;;;;;;;13.80;7.60;;;;;;;-7.83;75.25;98557.27;107305;1260;66596;-39
2024/01/13 02:56:13;;;;;;;17.90;7.90;;;;;;;-7.75;75.03;98548.73;107323;1257;72458;-39
2024/01/13 02:58:41;;;;;;;17.30;8.00;;;;;;;-7.67;75.13;98546.52;107268;1257;60519;-39
2024/01/13 03:01:13;;;;;;;19.70;8.00;;;;;;;-7.65;75.59;98544.27;107295;1257;59568;-39
2024/01/13 03:03:44;;;;;;;16.30;8.20;;;;;;;-7.66;75.57;98541.89;107277;1254;72588;-39
2024/01/13 03:06:12;;;;;;;13.90;7.70;;;;;;;-7.69;75.41;98542.16;107233;1254;66443;-39
2024/01/13 03:08:40;;;;;;;16.60;8.80;;;;;;;-7.74;75.52;98535.84;107242;1258;73113;-39
2024/01/13 03:11:10;;;;;;;16.90;8.00;;;;;;;-7.79;75.95;98532.81;107139;1255;60590;-39
2024/01/13 03:13:38;;;;;;;15.80;7.70;;;;;;;-7.85;75.80;98525.09;107293;1255;60545;-40
2024/01/13 03:16:06;;;;;;;13.50;7.60;;;;;;;-7.90;75.92;98522.08;107260;1256;73791;-39
2024/01/13 03:18:35;;;;;;;15.50;7.00;;;;;;;-7.84;75.81;98521.02;107277;1258;66274;-39
2024/01/13 03:21:12;;;;;;;15.90;7.50;;;;;;;-7.76;75.70;98514.30;107285;1258;71400;-40
2024/01/13 03:23:42;;;;;;;12.80;7.20;;;;;;;-7.69;75.51;98505.80;107249;1254;60332;-39
2024/01/13 03:26:14;;;;;;;13.40;7.20;;;;;;;-7.62;75.40;98498.70;107250;1257;60469;-39
2024/01/13 03:28:43;;;;;;;15.10;7.40;;;;;;;-7.53;75.08;98493.64;107252;1255;72857;-40
2024/01/13 03:31:12;;;;;;;16.10;7.40;;;;;;;-7.50;74.85;98489.58;107276;1255;66364;-40
2024/01/13 03:33:45;;;;;;;14.70;7.60;;;;;;;-7.51;74.70;98485.91;106652;1254;1003541;-40
2024/01/13 03:36:14;;;;;;;17.20;7.70;;;;;;;-7.64;74.92;98471.73;107368;1257;60442;-39
2024/01/13 03:38:42;;;;;;;14.00;7.80;;;;;;;-7.59;75.49;98482.32;106517;1257;1003138;-40
2024/01/13 03:41:12;;;;;;;;;;;;;;;-7.63;75.51;98476.48;107298;1254;72681;-40
2024/01/13 03:43:40;;;;;;;15.50;7.40;;;;;;;-7.67;75.87;98470.86;107267;1257;67976;-40
2024/01/13 03:46:07;;;;;;;19.40;7.70;;;;;;;-7.73;76.31;98471.53;107225;1261;71428;-40
2024/01/13 03:48:35;;;;;;;16.00;8.00;;;;;;;-7.73;76.71;98472.11;107252;1255;61725;-40
2024/01/13 03:51:03;;;;;;;14.10;6.90;;;;;;;-7.65;76.83;98464.85;107303;1255;59534;-40
2024/01/13 03:53:32;;;;;;;15.30;7.50;;;;;;;-7.54;76.77;98464.16;107311;1255;73867;-40
2024/01/13 03:56:05;;;;;;;11.60;6.20;;;;;;;-7.41;76.89;98459.80;107244;1257;67566;-40
2024/01/13 03:58:38;;;;;;;15.60;6.90;;;;;;;-7.29;76.65;98454.92;107207;1257;72662;-40
2024/01/13 04:01:05;;;;;;;12.60;6.70;;;;;;;-7.24;76.57;98449.70;107276;1258;60424;-40
2024/01/13 04:03:33;;;;;;;12.00;7.00;;;;;;;-7.21;76.50;98449.08;107240;1256;60363;-40
2024/01/13 04:06:02;;;;;;;15.60;7.40;;;;;;;-7.19;76.51;98447.01;106501;1257;1003740;-40
2024/01/13 04:08:32;;;;;;;12.50;6.80;;;;;;;-7.19;76.54;98442.12;107248;1257;66759;-40
2024/01/13 04:11:04;;;;;;;10.30;5.10;;;;;;;-7.19;76.39;98438.52;107238;1257;71402;-40
2024/01/13 04:13:32;;;;;;;12.50;7.00;;;;;;;-7.21;76.59;98435.38;107245;1255;61085;-40
2024/01/13 04:15:59;;;;;;;13.40;6.70;;;;;;;-7.24;76.53;98434.34;106494;1257;1003459;-40
2024/01/13 04:18:26;;;;;;;15.70;6.80;;;;;;;-7.26;76.49;98433.29;107246;1257;73949;-40
2024/01/13 04:20:54;;;;;;;12.20;6.50;;;;;;;-7.20;76.33;98421.63;107282;1257;67989;-40
2024/01/13 04:23:38;;;;;;;13.10;6.60;;;;;;;-7.17;76.78;98426.14;106510;1261;1002889;-40
2024/01/13 04:26:08;;;;;;;14.30;6.00;;;;;;;-7.17;76.77;98430.06;106599;1258;1003153;-39
2024/01/13 04:28:35;;;;;;;12.30;6.50;;;;;;;-7.17;77.09;98425.58;107299;1257;60431;-39
2024/01/13 04:31:04;;;;;;;12.70;6.80;;;;;;;-7.18;76.90;98422.67;107273;1257;73891;-40
2024/01/13 04:33:32;;;;;;;9.70;5.60;;;;;;;-7.20;77.37;98419.94;106489;1256;1002836;-40
2024/01/13 04:36:00;;;;;;;11.30;5.90;;;;;;;-7.19;77.42;98417.15;106592;1258;1004971;-39
2024/01/13 04:38:28;;;;;;;11.00;5.90;;;;;;;-7.13;77.42;98420.88;106562;1256;1003316;-39
2024/01/13 04:40:55;;;;;;;10.40;5.80;;;;;;;-7.02;77.50;98421.59;105781;1261;1003774;-40
2024/01/13 04:43:23;;;;;;;10.80;6.40;;;;;;;-6.98;77.50;98416.36;106536;1255;1003715;-40
2024/01/13 04:45:50;;;;;;;13.80;6.70;;;;;;;-6.97;77.44;98415.83;107241;1257;67883;-40
2024/01/13 04:48:18;;;;;;;11.40;5.80;;;;;;;-6.96;77.58;98415.44;107219;1257;72674;-40
2024/01/13 04:50:46;;;;;;;10.70;5.90;;;;;;;-6.94;77.67;98418.03;107190;1260;60500;-40
2024/01/13 04:53:13;;;;;;;12.00;6.40;;;;;;;-6.94;77.65;98414.19;107244;1257;60338;-40
2024/01/13 04:55:41;;;;;;;12.00;6.40;;;;;;;-6.94;77.86;98409.13;107218;1257;73890;-40
2024/01/13 04:58:08;;;;;;;10.30;5.90;;;;;;;-6.87;77.46;98402.77;107196;1257;66627;-39
2024/01/13 05:00:36;;;;;;;12.20;6.10;;;;;;;-6.74;77.70;98410.48;107226;1257;71374;-40
2024/01/13 05:03:04;;;;;;;10.20;6.00;;;;;;;-6.68;77.39;98417.25;107207;1257;59700;-40
2024/01/13 05:05:32;;;;;;;9.60;5.80;;;;;;;-6.65;77.65;98421.40;107277;1257;60400;-40
2024/01/13 05:07:59;;;;;;;10.60;6.10;;;;;;;-6.64;77.59;98422.55;107191;1257;73860;-37
2024/01/13 05:10:27;;;;;;;10.70;5.60;;;;;;;-6.64;77.35;98417.13;107264;1257;67520;-37
2024/01/13 05:12:54;;;;;;;11.90;5.90;;;;;;;-6.65;77.17;98404.95;107185;1257;72704;-39
2024/01/13 05:15:22;;;;;;;10.80;6.20;;;;;;;-6.66;77.37;98405.79;107226;1257;60485;-38
2024/01/13 05:17:49;;;;;;;11.00;5.80;;;;;;;-6.59;77.36;98404.23;106452;1257;1003368;-38
2024/01/13 05:20:17;;;;;;;9.40;5.40;;;;;;;-6.48;77.07;98405.65;107202;1263;73826;-38
2024/01/13 05:22:45;;;;;;;9.40;5.80;;;;;;;-6.44;77.27;98401.10;107233;1257;68342;-39
2024/01/13 05:25:14;;;;;;;10.70;6.50;;;;;;;-6.42;77.03;98396.81;107175;1257;72651;-39
2024/01/13 05:27:42;;;;;;;12.20;6.40;;;;;;;-6.42;77.16;98394.12;107214;1263;60421;-40
2024/01/13 05:30:10;;;;;;;13.80;6.60;;;;;;;-6.43;77.40;98388.75;107188;1257;60338;-39
2024/01/13 05:32:39;;;;;;;9.90;5.00;;;;;;;-6.43;77.50;98389.32;107238;1257;73192;-40
2024/01/13 05:35:08;;;;;;;13.90;6.50;;;;;;;-6.41;77.54;98387.69;107224;1258;65926;-40
2024/01/13 05:37:36;;;;;;;13.60;6.90;;;;;;;-6.33;77.70;98385.79;107289;1262;72688;-39
2024/01/13 05:40:05;;;;;;;11.70;6.40;;;;;;;-6.21;77.26;98384.77;107200;1257;60411;-39
2024/01/13 05:42:34;;;;;;;12.00;6.20;;;;;;;-6.15;77.38;98378.52;107244;1257;60460;-39
2024/01/13 05:45:01;;;;;;;15.60;6.70;;;;;;;-6.14;77.35;98380.66;107603;1259;74654;-40
2024/01/13 05:47:29;;;;;;;11.60;6.20;;;;;;;-6.14;77.63;98380.91;107607;1254;66618;-40
2024/01/13 05:49:57;;;;;;;10.90;6.50;;;;;;;-6.15;77.65;98380.51;107635;1254;72550;-39
2024/01/13 05:52:24;;;;;;;11.60;6.60;;;;;;;-6.16;77.49;98376.30;107609;1254;60306;-39
2024/01/13 05:54:52;;;;;;;14.00;7.10;;;;;;;-6.16;77.72;98380.89;106866;1252;1002977;-39
2024/01/13 05:57:19;;;;;;;11.40;5.60;;;;;;;-6.11;77.69;98378.79;107619;1254;73834;-40
2024/01/13 05:59:47;;;;;;;14.00;6.00;;;;;;;-6.02;77.50;98385.27;107616;1254;67833;-40
2024/01/13 06:02:15;;;;;;;10.50;6.10;;;;;;;-5.99;77.67;98385.82;107608;1254;72631;-39
2024/01/13 06:04:42;;;;;;;14.00;6.90;;;;;;;-5.97;77.84;98388.19;107610;1254;60411;-40
2024/01/13 06:07:10;;;;;;;12.60;6.80;;;;;;;-5.95;77.80;98389.95;107620;1254;60323;-40
2024/01/13 06:09:41;;;;;;;14.60;7.00;;;;;;;-5.94;77.67;98392.32;106847;1254;1003687;-39
2024/01/13 06:12:09;;;;;;;10.80;6.80;;;;;;;-5.90;77.69;98391.50;107619;1254;67895;-40
2024/01/13 06:14:37;;;;;;;14.20;6.70;;;;;;;-5.85;77.95;98395.98;107584;1254;72676;-40
2024/01/13 06:17:04;;;;;;;13.00;6.70;;;;;;;-5.78;77.66;98399.98;107593;1256;59806;-40
2024/01/13 06:19:32;;;;;;;11.30;6.10;;;;;;;-5.65;77.41;98402.45;107526;1254;60351;-40
2024/01/13 06:21:59;;;;;;;13.00;6.60;;;;;;;-5.48;77.09;98404.80;107639;1254;73802;-39
2024/01/13 06:24:27;;;;;;;13.40;6.70;;;;;;;-5.36;77.19;98410.80;107622;1257;66309;-39
2024/01/13 06:26:54;;;;;;;12.20;6.90;;;;;;;-5.24;77.11;98413.33;107560;1254;71344;-39
2024/01/13 06:29:22;;;;;;;10.60;6.60;;;;;;;-5.13;76.84;98414.29;107565;1257;60441;-40
2024/01/13 06:31:49;;;;;;;13.10;6.40;;;;;;;-5.03;76.56;98419.94;106865;1254;1003960;-39
2024/01/13 06:34:17;;;;;;;14.90;6.70;;;;;;;-4.95;76.26;98424.92;107624;1254;71437;-40
2024/01/13 06:36:45;;;;;;;13.80;7.10;;;;;;;-4.89;75.89;98423.63;107625;1257;66477;-40
2024/01/13 06:39:12;;;;;;;12.10;6.80;;;;;;;-4.85;75.40;98427.70;107609;1254;72474;-40
2024/01/13 06:41:40;;;;;;;13.00;7.30;;;;;;;-4.82;75.14;98429.90;107602;1254;60408;-39
2024/01/13 06:44:07;;;;;;;13.80;7.30;;;;;;;-4.80;74.88;98432.11;107620;1253;60559;-39
2024/01/13 06:46:35;;;;;;;13.10;6.80;;;;;;;-4.76;74.38;98429.41;107621;1253;72585;-40
2024/01/13 06:49:02;;;;;;;14.10;7.80;;;;;;;-4.72;73.93;98429.84;107624;1254;66310;-39
2024/01/13 06:51:30;;;;;;;12.90;7.40;;;;;;;-4.73;73.88;98437.94;107580;1259;73021;-40
2024/01/13 06:53:58;;;;;;;13.10;7.20;;;;;;;-4.75;73.79;98438.71;107644;1254;60355;-39
2024/01/13 06:56:26;;;;;;;14.70;7.30;;;;;;;-4.81;73.60;98439.83;107644;1254;59852;-40
2024/01/13 06:58:53;;;;;;;14.10;7.60;;;;;;;-4.89;73.59;98441.83;107629;1256;73866;-40
2024/01/13 07:01:21;;;;;;;12.90;7.90;;;;;;;-4.94;73.84;98448.69;106834;1254;1004875;-40
2024/01/13 07:03:48;;;;;;;13.60;8.00;;;;;;;-4.98;73.65;98439.38;107614;1254;71403;-40
2024/01/13 07:06:16;;;;;;;14.80;7.40;;;;;;;-4.85;73.51;98454.94;107622;1254;60513;-40
2024/01/13 07:08:43;;;;;;;13.70;8.20;;;;;;;-4.87;73.68;98448.84;106845;1253;1002847;-40
2024/01/13 07:11:14;;;;;;;16.80;8.30;;;;;;;-4.85;73.91;98451.67;106874;1259;1016100;-40
2024/01/13 07:13:43;;;;;;;15.60;8.10;;;;;;;-4.78;74.19;98450.43;106876;1254;1003505;-41
2024/01/13 07:16:11;;;;;;;15.70;8.00;;;;;;;-4.72;73.91;98446.40;107639;1254;72671;-40
2024/01/13 07:18:39;;;;;;;15.40;8.20;;;;;;;-4.73;73.63;98448.16;107626;1254;62223;-41
2024/01/13 07:21:06;;;;;;;16.00;8.30;;;;;;;-4.69;73.65;98451.44;107638;1252;60009;-38
2024/01/13 07:23:34;;;;;;;17.40;8.80;;;;;;;-4.64;73.20;98454.34;107623;1254;73847;-39
2024/01/13 07:26:02;;;;;;;17.60;8.80;;;;;;;-4.66;73.28;98466.06;107600;1254;66299;-39
2024/01/13 07:28:30;;;;;;;15.80;8.70;;;;;;;-4.66;73.53;98463.61;106854;1254;1003033;-39
2024/01/13 07:30:57;;;;;;;16.20;8.40;;;;;;;-4.63;73.57;98465.23;106873;1254;1003408;-39
2024/01/13 07:33:25;;;;;;;14.30;7.80;;;;;;;-4.58;73.60;98473.25;106869;1254;1003051;-39
2024/01/13 07:35:53;;;;;;;15.40;7.90;;;;;;;-4.55;73.42;98476.09;107609;1254;73833;-39
2024/01/13 07:38:21;;;;;;;12.10;7.60;;;;;;;-4.56;72.89;98473.24;107591;1258;67568;-39
2024/01/13 07:40:48;;;;;;;17.70;8.50;;;;;;;-4.53;72.85;98480.66;107611;1254;72641;-38
2024/01/13 07:43:16;;;;;;;18.00;9.50;;;;;;;-4.55;72.78;98477.36;107617;1259;60427;-40
2024/01/13 07:45:43;;;;;;;16.60;9.70;;;;;;;-4.58;72.52;98480.56;106873;1254;1003186;-40
2024/01/13 07:48:10;;;;;;;17.70;9.00;;;;;;;-4.67;71.97;98484.41;107599;1254;73845;-40
2024/01/13 07:50:39;;;;;;;15.90;10.10;;;;;;;-4.75;71.93;98487.41;107631;1258;66305;-41
2024/01/13 07:53:06;;;;;;;17.50;9.70;;;;;;;-4.79;72.13;98492.96;107575;1255;72895;-40
2024/01/13 07:55:34;;;;;;;15.50;8.60;;;;;;;-4.77;72.14;98494.04;106842;1254;1003598;-40
2024/01/13 07:58:01;;;;;;;15.90;9.10;;;;;;;-4.69;72.11;98496.91;106878;1256;1003050;-40
2024/01/13 08:00:29;;;;;;;17.00;9.50;;;;;;;-4.69;72.23;98496.27;106836;1254;1003792;-40
2024/01/13 08:02:57;;;;;;;18.50;9.40;;;;;;;-4.65;72.43;98502.54;106871;1259;1002949;-39
2024/01/13 08:05:24;;;;;;;18.30;9.50;;;;;;;-4.60;72.69;98503.17;106822;1255;1003099;-39
2024/01/13 08:07:52;;;;;;;17.70;10.30;;;;;;;-4.52;72.82;98510.42;107611;1260;60425;-39
2024/01/13 08:10:19;;;;;;;17.20;9.30;;;;;;;-4.44;72.36;98511.45;107598;1252;60443;-39
2024/01/13 08:12:46;;;;;;;17.10;9.40;;;;;;;-4.39;71.65;98516.85;107595;1254;73811;-39
2024/01/13 08:15:14;;;;;;;16.50;8.90;;;;;;;-4.34;71.23;98515.25;107585;1255;67542;-38
2024/01/13 08:17:42;;;;;;;18.00;9.20;;;;;;;-4.36;71.15;98519.55;107614;1254;71526;-39
2024/01/13 08:20:10;;;;;;;18.70;9.30;;;;;;;-4.42;71.03;98521.00;107561;1254;60333;-39
2024/01/13 08:22:38;;;;;;;18.30;9.70;;;;;;;-4.42;71.45;98529.05;107634;1257;60297;-40
2024/01/13 08:25:07;;;;;;;18.10;9.10;;;;;;;-4.37;71.57;98529.99;107617;1254;72634;-39
2024/01/13 08:27:34;;;;;;;15.70;9.10;;;;;;;-4.36;71.09;98529.19;106869;1257;1003517;-39
2024/01/13 08:30:02;;;;;;;12.00;7.70;;;;;;;-4.36;71.01;98533.23;107614;1255;71412;-40
2024/01/13 08:32:31;;;;;;;22.30;14.20;;;;;;;-4.33;70.88;98536.51;107685;1259;60526;-40
2024/01/13 08:34:59;;;;;;;15.70;8.50;;;;;;;-4.34;70.81;98538.48;107633;1259;60351;-39
2024/01/13 08:37:26;;;;;;;16.80;9.30;;;;;;;-4.40;70.81;98541.66;107633;1254;73340;-39
2024/01/13 08:39:54;;;;;;;17.40;9.40;;;;;;;-4.43;70.98;98547.57;107640;1255;66789;-39
2024/01/13 08:42:21;;;;;;;17.50;9.60;;;;;;;-4.47;71.08;98554.23;107612;1254;72710;-39
2024/01/13 08:44:49;;;;;;;16.00;8.90;;;;;;;-4.48;71.25;98558.84;107625;1255;60534;-39
2024/01/13 08:47:17;;;;;;;16.90;8.30;;;;;;;-4.41;71.28;98564.86;107580;1254;60399;-40
2024/01/13 08:49:45;;;;;;;15.10;8.60;;;;;;;-4.29;71.03;98569.05;107595;1257;72568;-40
2024/01/13 08:52:12;;;;;;;14.30;8.70;;;;;;;-4.22;71.03;98577.25;107619;1258;66625;-40
2024/01/13 08:54:39;;;;;;;18.90;9.70;;;;;;;-4.19;71.09;98582.87;107604;1257;71704;-40
2024/01/13 08:57:07;;;;;;;17.40;9.80;;;;;;;-4.17;70.42;98590.46;107595;1257;59448;-40
2024/01/13 08:59:37;;;;;;;17.10;10.30;;;;;;;-4.23;70.20;98590.30;107532;1255;123103;-40
2024/01/13 09:03:28;;;;;;;23.50;11.20;;;;;;;-4.38;69.89;98585.61;104258;1291;600214;-39
2024/01/13 09:05:56;;;;;;;20.10;10.90;;;;;;;-4.40;70.17;98600.77;106614;1267;60030;-39
2024/01/13 09:08:24;;;;;;;22.80;11.30;;;;;;;-4.45;70.28;98600.45;106664;1265;59254;-39
2024/01/13 09:10:51;;;;;;;21.90;11.70;;;;;;;-4.43;70.34;98599.64;105891;1266;1003073;-40
2024/01/13 09:13:19;;;;;;;21.30;12.00;;;;;;;-4.40;70.36;98599.86;106725;1266;66608;-40
2024/01/13 09:15:50;;;;;;;22.10;12.30;;;;;;;-4.42;70.76;98603.65;106700;1267;72653;-40
2024/01/13 09:18:18;;;;;;;20.30;12.80;;;;;;;-4.41;71.08;98599.83;106738;1263;59653;-39
2024/01/13 09:20:46;;;;;;;26.70;13.10;;;;;;;-4.38;70.95;98599.21;106786;1264;60461;-39
2024/01/13 09:23:13;;;;;;;25.20;13.70;;;;;;;-4.38;71.10;98599.48;106833;1264;72371;-39
2024/01/13 09:25:41;;;;;;;27.20;13.60;;;;;;;-4.36;70.66;98603.53;106828;1263;66601;-39
2024/01/13 09:28:09;;;;;;;34.50;15.20;;;;;;;-4.25;70.84;98605.43;106809;1264;70424;-40
2024/01/13 09:30:37;;;;;;;30.10;16.80;;;;;;;-4.10;71.02;98616.06;106763;1263;59538;-39
2024/01/13 09:33:05;;;;;;;32.30;18.40;;;;;;;-3.99;70.63;98625.30;106761;1264;59936;-39
2024/01/13 09:35:33;;;;;;;33.60;19.10;;;;;;;-3.87;70.95;98632.95;107190;1254;73087;-40
2024/01/13 09:38:00;;;;;;;38.60;20.60;;;;;;;-3.82;70.29;98625.32;106470;1254;1003440;-39
2024/01/13 09:40:28;;;;;;;39.10;20.60;;;;;;;-3.69;70.03;98640.15;107210;1254;72707;-39
2024/01/13 09:43:05;;;;;;;42.20;19.90;;;;;;;-3.65;69.30;98645.35;107207;1256;59647;-40
2024/01/13 09:45:32;;;;;;;37.00;21.20;;;;;;;-3.70;68.24;98647.36;107279;1260;59276;-40
2024/01/13 09:48:00;;;;;;;39.00;19.80;;;;;;;-3.85;68.03;98649.83;107302;1254;71699;-40
2024/01/13 09:50:27;;;;;;;29.70;17.30;;;;;;;-3.91;68.58;98652.86;107139;1254;67573;-40
2024/01/13 09:52:55;;;;;;;26.50;15.90;;;;;;;-3.88;68.08;98652.55;107258;1257;71415;-40
2024/01/13 09:55:22;;;;;;;28.90;15.70;;;;;;;-3.84;67.78;98654.31;107240;1260;59765;-39
2024/01/13 09:57:50;;;;;;;29.00;16.20;;;;;;;-3.86;67.86;98657.14;107250;1254;60136;-40
2024/01/13 10:00:17;;;;;;;29.60;16.60;;;;;;;-3.88;67.98;98654.95;107283;1260;71111;-39
2024/01/13 10:02:45;;;;;;;31.90;17.70;;;;;;;-3.91;67.81;98660.64;107318;1254;67937;-40
2024/01/13 10:05:13;;;;;;;34.20;17.60;;;;;;;-4.00;67.59;98659.84;107258;1254;71505;-40
2024/01/13 10:07:40;;;;;;;33.70;17.70;;;;;;;-4.07;67.76;98662.40;107250;1254;60184;-40
2024/01/13 10:10:08;;;;;;;35.20;20.10;;;;;;;-4.09;68.10;98663.64;107214;1254;59810;-40
2024/01/13 10:12:38;;;;;;;34.00;18.60;;;;;;;-4.13;68.10;98663.26;107140;1254;72351;-40
2024/01/13 10:15:16;;;;;;;32.20;18.10;;;;;;;-4.11;67.87;98661.43;107372;1257;66682;-40
2024/01/13 10:17:44;;;;;;;32.80;18.10;;;;;;;-4.12;67.93;98661.98;107363;1257;72740;-40
2024/01/13 10:20:13;;;;;;;32.30;18.60;;;;;;;-4.12;68.17;98661.84;107280;1254;59451;-40
2024/01/13 10:22:41;;;;;;;31.10;16.00;;;;;;;-4.05;68.80;98655.27;107342;1254;59835;-40
2024/01/13 10:25:09;;;;;;;35.30;19.70;;;;;;;-3.93;68.62;98653.73;107305;1257;70754;-40
2024/01/13 10:27:37;;;;;;;36.20;19.90;;;;;;;-3.87;67.84;98651.55;107253;1257;66635;-39
2024/01/13 10:30:07;;;;;;;34.60;18.50;;;;;;;-3.86;67.79;98654.92;106578;1258;1005409;-40
2024/01/13 10:32:35;;;;;;;34.70;18.70;;;;;;;-3.79;67.55;98655.90;107278;1255;61674;-39
2024/01/13 10:35:03;;;;;;;37.10;18.90;;;;;;;-3.81;67.47;98645.23;107285;1256;59530;-40
2024/01/13 10:37:31;;;;;;;33.60;17.90;;;;;;;-3.70;67.40;98655.90;107274;1257;73069;-39
2024/01/13 10:39:59;;;;;;;38.10;19.30;;;;;;;-3.65;67.24;98652.55;107264;1257;67543;-40
2024/01/13 10:42:30;;;;;;;35.60;19.50;;;;;;;-3.64;66.54;98650.00;107253;1258;72770;-40
2024/01/13 10:44:59;;;;;;;32.60;18.70;;;;;;;-3.68;66.43;98654.55;107243;1257;60157;-40
2024/01/13 10:47:30;;;;;;;29.20;17.80;;;;;;;-3.72;66.49;98658.52;106553;1257;1003437;-40
2024/01/13 10:49:58;;;;;;;34.20;17.60;;;;;;;-3.80;66.35;98665.29;107258;1254;73054;-40
2024/01/13 10:52:33;;;;;;;31.70;17.60;;;;;;;-3.82;66.34;98664.77;107244;1257;67849;-39
2024/01/13 10:55:02;;;;;;;34.60;17.80;;;;;;;-3.73;66.61;98668.95;107237;1260;72798;-40
2024/01/13 10:57:30;;;;;;;;;;;;;;;-3.64;66.79;98675.73;107255;1255;59614;-39
2024/01/13 10:59:57;;;;;;;43.60;22.70;;;;;;;-3.57;66.38;98675.02;107363;1258;59640;-39
2024/01/13 11:02:26;;;;;;;49.10;25.70;;;;;;;-3.54;66.22;98674.23;107059;1256;73125;-39
2024/01/13 11:04:54;;;;;;;41.70;22.10;;;;;;;-3.54;66.05;98672.65;107270;1257;68718;-39
2024/01/13 11:07:22;;;;;;;30.50;17.90;;;;;;;-3.59;65.79;98678.85;107255;1257;71226;-40
2024/01/13 11:09:50;;;;;;;30.50;16.10;;;;;;;-3.69;65.91;98683.33;107332;1254;59660;-39
2024/01/13 11:12:29;;;;;;;25.30;15.60;;;;;;;-3.70;66.65;98687.67;106524;1256;1003306;-39
2024/01/13 11:15:20;;;;;;;21.90;12.00;;;;;;;-3.62;67.18;98689.02;107278;1257;73079;-39
2024/01/13 11:17:48;;;;;;;28.60;16.10;;;;;;;-3.55;67.08;98690.25;107254;1254;65349;-40
2024/01/13 11:20:20;;;;;;;29.50;17.00;;;;;;;-3.37;66.37;98693.21;107250;1257;73254;-40
2024/01/13 11:23:00;;;;;;;31.30;18.00;;;;;;;-3.34;65.37;98695.19;107270;1257;59653;-40